createdAt,value
2023-09-08T00:01:47.492Z,17.85
2023-09-08T00:04:14.139Z,17.83
2023-09-08T00:06:40.803Z,17.83
2023-09-08T00:09:08.142Z,17.84
2023-09-08T00:11:34.827Z,17.85
2023-09-08T00:14:01.332Z,17.87
2023-09-08T00:16:27.899Z,17.89
2023-09-08T00:18:54.470Z,17.89
2023-09-08T00:21:20.935Z,17.88
2023-09-08T00:23:47.410Z,17.86
2023-09-08T00:26:13.936Z,17.85
2023-09-08T00:28:40.430Z,17.86
2023-09-08T00:31:06.936Z,17.87
2023-09-08T00:33:33.545Z,17.89
2023-09-08T00:36:00.122Z,17.92
2023-09-08T00:38:26.686Z,17.93
2023-09-08T00:40:53.322Z,17.95
2023-09-08T00:43:19.836Z,17.97
2023-09-08T00:45:47.151Z,17.98
2023-09-08T00:48:14.052Z,17.99
2023-09-08T00:50:40.788Z,18.00
2023-09-08T00:53:08.566Z,18.03
2023-09-08T00:55:35.907Z,18.07
2023-09-08T00:58:03.025Z,18.11
2023-09-08T01:00:29.525Z,18.15
2023-09-08T01:02:56.268Z,18.18
2023-09-08T01:05:25.781Z,18.18
2023-09-08T01:07:54.273Z,18.17
2023-09-08T01:10:20.835Z,18.14
2023-09-08T01:12:47.391Z,18.10
2023-09-08T01:15:14.146Z,18.07
2023-09-08T01:17:40.681Z,18.01
2023-09-08T01:20:23.442Z,17.96
2023-09-08T01:22:58.977Z,17.89
2023-09-08T01:25:27.041Z,17.83
2023-09-08T01:27:55.173Z,17.76
2023-09-08T01:30:27.558Z,17.70
2023-09-08T01:32:55.590Z,17.64
2023-09-08T01:35:22.579Z,17.60
2023-09-08T01:37:50.065Z,17.57
2023-09-08T01:40:17.089Z,17.52
2023-09-08T01:42:43.583Z,17.49
2023-09-08T01:45:10.089Z,17.46
2023-09-08T01:47:36.729Z,17.41
2023-09-08T01:50:03.627Z,17.38
2023-09-08T01:52:30.175Z,17.34
2023-09-08T01:54:56.691Z,17.30
2023-09-08T01:57:23.386Z,17.25
2023-09-08T01:59:49.966Z,17.21
2023-09-08T02:02:16.447Z,17.17
2023-09-08T02:04:42.984Z,17.14
2023-09-08T02:07:09.549Z,17.13
2023-09-08T02:09:38.072Z,17.13
2023-09-08T02:12:05.159Z,17.12
2023-09-08T02:14:31.839Z,17.10
2023-09-08T02:16:58.528Z,17.09
2023-09-08T02:19:25.159Z,17.06
2023-09-08T02:21:51.719Z,17.06
2023-09-08T02:24:18.326Z,17.05
2023-09-08T02:26:45.322Z,17.06
2023-09-08T02:29:11.844Z,17.06
2023-09-08T02:31:38.337Z,17.05
2023-09-08T02:34:04.811Z,17.04
2023-09-08T02:36:31.355Z,17.05
2023-09-08T02:38:58.571Z,17.08
2023-09-08T02:41:25.089Z,17.12
2023-09-08T02:43:51.843Z,17.17
2023-09-08T02:46:18.334Z,17.21
2023-09-08T02:48:44.832Z,17.24
2023-09-08T02:51:11.352Z,17.27
2023-09-08T02:53:37.813Z,17.29
2023-09-08T02:56:04.631Z,17.30
2023-09-08T02:58:31.177Z,17.30
2023-09-08T03:00:57.739Z,17.30
2023-09-08T03:03:24.346Z,17.29
2023-09-08T03:05:55.162Z,17.28
2023-09-08T03:08:24.012Z,17.27
2023-09-08T03:10:50.537Z,17.26
2023-09-08T03:13:17.010Z,17.24
2023-09-08T03:15:43.462Z,17.25
2023-09-08T03:18:10.043Z,17.24
2023-09-08T03:20:36.555Z,17.22
2023-09-08T03:23:03.063Z,17.21
2023-09-08T03:25:29.574Z,17.19
2023-09-08T03:27:56.072Z,17.18
2023-09-08T03:30:22.659Z,17.17
2023-09-08T03:32:49.506Z,17.18
2023-09-08T03:35:16.098Z,17.19
2023-09-08T03:37:42.576Z,17.19
2023-09-08T03:40:09.669Z,17.18
2023-09-08T03:42:36.233Z,17.16
2023-09-08T03:45:02.797Z,17.15
2023-09-08T03:47:29.339Z,17.15
2023-09-08T03:49:55.916Z,17.15
2023-09-08T03:52:22.545Z,17.16
2023-09-08T03:54:49.047Z,17.18
2023-09-08T03:57:15.546Z,17.18
2023-09-08T03:59:42.053Z,17.17
2023-09-08T04:02:08.664Z,17.16
2023-09-08T04:04:35.189Z,17.15
2023-09-08T04:07:01.714Z,17.13
2023-09-08T04:09:28.278Z,17.12
2023-09-08T04:11:55.102Z,17.10
2023-09-08T04:14:22.362Z,17.07
2023-09-08T04:16:48.854Z,17.04
2023-09-08T04:19:15.321Z,17.03
2023-09-08T04:21:42.369Z,17.03
2023-09-08T04:24:08.895Z,17.04
2023-09-08T04:26:35.397Z,17.05
2023-09-08T04:29:01.847Z,17.06
2023-09-08T04:31:28.381Z,17.07
2023-09-08T04:33:55.694Z,17.07
2023-09-08T04:36:22.449Z,17.07
2023-09-08T04:38:48.943Z,17.07
2023-09-08T04:41:15.463Z,17.06
2023-09-08T04:43:42.025Z,17.07
2023-09-08T04:46:08.547Z,17.06
2023-09-08T04:48:35.258Z,17.07
2023-09-08T04:51:02.220Z,17.09
2023-09-08T04:53:28.756Z,17.11
2023-09-08T04:55:55.267Z,17.14
2023-09-08T04:58:21.777Z,17.18
2023-09-08T05:00:48.330Z,17.20
2023-09-08T05:03:14.980Z,17.22
2023-09-08T05:05:41.554Z,17.23
2023-09-08T05:08:08.082Z,17.24
2023-09-08T05:10:34.704Z,17.26
2023-09-08T05:13:01.201Z,17.28
2023-09-08T05:15:27.713Z,17.30
2023-09-08T05:17:54.256Z,17.33
2023-09-08T05:20:20.925Z,17.35
2023-09-08T05:22:47.414Z,17.39
2023-09-08T05:25:13.913Z,17.44
2023-09-08T05:27:40.545Z,17.50
2023-09-08T05:30:07.764Z,17.56
2023-09-08T05:32:34.443Z,17.61
2023-09-08T05:35:01.021Z,17.65
2023-09-08T05:37:27.517Z,17.70
2023-09-08T05:39:54.061Z,17.74
2023-09-08T05:42:20.553Z,17.81
2023-09-08T05:44:47.043Z,17.86
2023-09-08T05:47:13.574Z,17.92
2023-09-08T05:49:40.206Z,17.97
2023-09-08T05:52:06.850Z,18.03
2023-09-08T05:54:33.359Z,18.10
2023-09-08T05:56:59.887Z,18.16
2023-09-08T05:59:26.458Z,18.25
2023-09-08T06:01:53.003Z,18.33
2023-09-08T06:04:19.646Z,18.43
2023-09-08T06:06:46.208Z,18.50
2023-09-08T06:09:12.710Z,18.60
2023-09-08T06:11:39.234Z,18.70
2023-09-08T06:14:05.723Z,18.79
2023-09-08T06:16:32.253Z,18.88
2023-09-08T06:18:58.780Z,18.97
2023-09-08T06:21:25.445Z,19.07
2023-09-08T06:23:51.994Z,19.16
2023-09-08T06:26:18.473Z,19.25
2023-09-08T06:28:45.034Z,19.34
2023-09-08T06:31:11.675Z,19.43
2023-09-08T06:33:38.329Z,19.52
2023-09-08T06:36:05.172Z,19.60
2023-09-08T06:38:31.713Z,19.70
2023-09-08T06:40:58.313Z,19.79
2023-09-08T06:43:25.184Z,19.87
2023-09-08T06:45:51.716Z,19.95
2023-09-08T06:48:18.258Z,20.02
2023-09-08T06:50:45.008Z,20.10
2023-09-08T06:53:11.680Z,20.17
2023-09-08T06:55:38.154Z,20.23
2023-09-08T06:58:04.979Z,20.29
2023-09-08T07:00:31.563Z,20.37
2023-09-08T07:03:00.254Z,20.45
2023-09-08T07:05:26.953Z,20.54
2023-09-08T07:07:53.497Z,20.62
2023-09-08T07:10:20.950Z,20.69
2023-09-08T07:12:47.463Z,20.78
2023-09-08T07:15:13.964Z,20.86
2023-09-08T07:17:40.501Z,20.93
2023-09-08T07:20:07.463Z,21.01
2023-09-08T07:22:34.044Z,21.08
2023-09-08T07:25:00.597Z,21.15
2023-09-08T07:27:27.090Z,21.22
2023-09-08T07:29:53.716Z,21.31
2023-09-08T07:32:20.226Z,21.39
2023-09-08T07:34:49.319Z,21.48
2023-09-08T07:37:15.841Z,21.56
2023-09-08T07:39:42.311Z,21.62
2023-09-08T07:42:08.776Z,21.70
2023-09-08T07:44:35.290Z,21.80
2023-09-08T07:47:01.836Z,21.87
2023-09-08T07:49:28.408Z,21.95
2023-09-08T07:51:54.919Z,22.04
2023-09-08T07:54:21.419Z,22.13
2023-09-08T07:56:48.436Z,22.22
2023-09-08T07:59:15.003Z,22.32
2023-09-08T08:01:41.675Z,22.43
2023-09-08T08:04:08.366Z,22.53
2023-09-08T08:06:35.061Z,22.63
2023-09-08T08:09:03.058Z,22.70
2023-09-08T08:11:29.974Z,22.80
2023-09-08T08:13:56.596Z,22.89
2023-09-08T08:16:23.395Z,23.00
2023-09-08T08:18:50.351Z,23.11
2023-09-08T08:21:16.921Z,23.22
2023-09-08T08:23:43.596Z,23.33
2023-09-08T08:26:10.085Z,23.45
2023-09-08T08:28:36.933Z,23.55
2023-09-08T08:31:03.726Z,23.66
2023-09-08T08:33:30.521Z,23.78
2023-09-08T08:35:57.321Z,23.87
2023-09-08T08:38:23.851Z,23.95
2023-09-08T08:40:50.413Z,24.04
2023-09-08T08:43:17.068Z,24.14
2023-09-08T08:45:44.316Z,24.23
2023-09-08T08:48:11.700Z,24.32
2023-09-08T08:50:39.624Z,24.42
2023-09-08T08:53:07.483Z,24.51
2023-09-08T08:55:35.438Z,24.61
2023-09-08T08:58:07.136Z,24.72
2023-09-08T09:00:37.066Z,24.81
2023-09-08T09:03:14.836Z,24.91
2023-09-08T09:05:44.833Z,24.99
2023-09-08T09:08:16.223Z,25.06
2023-09-08T09:10:42.751Z,25.15
2023-09-08T09:13:09.275Z,25.23
2023-09-08T09:15:35.881Z,25.32
2023-09-08T09:18:06.736Z,25.42
2023-09-08T09:20:33.854Z,25.50
2023-09-08T09:23:00.774Z,25.59
2023-09-08T09:25:30.918Z,25.67
2023-09-08T09:28:02.567Z,25.75
2023-09-08T09:30:46.570Z,25.83
2023-09-08T09:33:13.193Z,25.92
2023-09-08T09:35:55.239Z,26.01
2023-09-08T09:38:22.912Z,26.08
2023-09-08T09:40:49.709Z,26.15
2023-09-08T09:43:17.342Z,26.22
2023-09-08T09:45:44.417Z,26.32
2023-09-08T09:48:12.231Z,26.42
2023-09-08T09:50:41.404Z,26.54
2023-09-08T09:53:15.526Z,26.68
2023-09-08T09:55:44.621Z,26.82
2023-09-08T09:58:12.399Z,26.98
2023-09-08T10:00:40.026Z,27.19
2023-09-08T10:03:07.126Z,27.40
2023-09-08T10:05:34.864Z,27.64
2023-09-08T10:08:01.806Z,28.01
2023-09-08T10:10:30.684Z,28.78
2023-09-08T10:13:02.641Z,29.72
2023-09-08T10:15:31.640Z,30.70
2023-09-08T10:17:58.757Z,31.75
2023-09-08T10:20:26.532Z,32.88
2023-09-08T10:23:07.633Z,34.11
2023-09-08T10:25:38.568Z,35.56
2023-09-08T10:28:06.014Z,36.94
2023-09-08T10:30:33.319Z,38.19
2023-09-08T10:33:01.631Z,39.33
2023-09-08T10:35:29.218Z,40.39
2023-09-08T10:38:23.795Z,41.37
2023-09-08T10:40:50.484Z,42.29
2023-09-08T10:43:17.065Z,43.04
2023-09-08T10:45:43.730Z,43.74
2023-09-08T10:48:10.335Z,44.48
2023-09-08T10:50:41.134Z,45.10
2023-09-08T10:53:13.466Z,45.62
2023-09-08T10:56:06.446Z,46.07
2023-09-08T10:58:38.374Z,46.54
2023-09-08T11:01:05.913Z,46.94
2023-09-08T11:03:38.913Z,47.34
2023-09-08T11:06:10.233Z,47.74
2023-09-08T11:08:39.762Z,48.03
2023-09-08T11:11:07.288Z,48.47
2023-09-08T11:13:33.943Z,48.99
2023-09-08T11:16:00.504Z,49.42
2023-09-08T11:18:35.109Z,49.76
2023-09-08T11:21:03.833Z,49.96
2023-09-08T11:23:31.066Z,49.98
2023-09-08T11:25:58.050Z,49.58
2023-09-08T11:28:25.788Z,48.48
2023-09-08T11:30:52.468Z,47.10
2023-09-08T11:33:21.926Z,45.79
2023-09-08T11:35:49.173Z,44.63
2023-09-08T11:38:15.729Z,43.53
2023-09-08T11:40:42.779Z,42.49
2023-09-08T11:43:09.369Z,41.39
2023-09-08T11:45:36.971Z,40.28
2023-09-08T11:48:05.065Z,39.27
2023-09-08T11:50:32.817Z,38.34
2023-09-08T11:52:59.346Z,37.49
2023-09-08T11:55:26.267Z,36.73
2023-09-08T11:57:56.945Z,36.14
2023-09-08T12:00:24.751Z,35.61
2023-09-08T12:02:51.490Z,35.11
2023-09-08T12:05:28.790Z,34.66
2023-09-08T12:07:56.717Z,34.23
2023-09-08T12:10:24.843Z,33.81
2023-09-08T12:12:56.242Z,33.38
2023-09-08T12:15:33.624Z,33.00
2023-09-08T12:18:01.762Z,32.67
2023-09-08T12:20:28.510Z,32.39
2023-09-08T12:22:55.091Z,32.16
2023-09-08T12:25:21.639Z,31.93
2023-09-08T12:27:51.481Z,31.72
2023-09-08T12:30:19.647Z,31.49
2023-09-08T12:32:48.562Z,31.27
2023-09-08T12:35:23.003Z,31.09
2023-09-08T12:38:04.347Z,30.92
2023-09-08T12:40:34.119Z,30.78
2023-09-08T12:43:04.051Z,30.66
2023-09-08T12:45:42.491Z,30.56
2023-09-08T12:48:09.112Z,30.46
2023-09-08T12:50:35.783Z,30.38
2023-09-08T12:53:02.349Z,30.34
2023-09-08T12:55:28.814Z,30.29
2023-09-08T12:57:55.308Z,30.26
2023-09-08T13:00:23.509Z,30.23
2023-09-08T13:02:50.772Z,30.17
2023-09-08T13:05:17.728Z,30.12
2023-09-08T13:07:44.371Z,30.07
2023-09-08T13:10:11.128Z,29.99
2023-09-08T13:12:37.720Z,29.90
2023-09-08T13:15:04.646Z,29.83
2023-09-08T13:17:31.183Z,29.79
2023-09-08T13:19:57.704Z,29.74
2023-09-08T13:22:24.187Z,29.70
2023-09-08T13:24:50.719Z,29.66
2023-09-08T13:27:17.237Z,29.63
2023-09-08T13:29:43.714Z,29.60
2023-09-08T13:32:10.270Z,29.58
2023-09-08T13:34:36.915Z,29.61
2023-09-08T13:37:03.500Z,29.65
2023-09-08T13:39:29.990Z,29.71
2023-09-08T13:41:57.536Z,29.76
2023-09-08T13:44:25.588Z,29.84
2023-09-08T13:46:53.621Z,29.98
2023-09-08T13:49:20.937Z,30.08
2023-09-08T13:51:49.538Z,30.16
2023-09-08T13:54:18.349Z,30.17
2023-09-08T13:56:45.423Z,30.19
2023-09-08T13:59:12.857Z,30.24
2023-09-08T14:01:41.160Z,30.26
2023-09-08T14:04:10.820Z,30.19
2023-09-08T14:06:41.119Z,30.04
2023-09-08T14:14:07.335Z,29.41
2023-09-08T14:16:33.953Z,29.20
2023-09-08T14:19:00.942Z,29.10
2023-09-08T14:21:30.224Z,29.10
2023-09-08T14:23:57.157Z,29.13
2023-09-08T14:26:23.789Z,29.21
2023-09-08T14:28:50.555Z,29.33
2023-09-08T14:31:17.111Z,29.37
2023-09-08T14:33:43.787Z,29.36
2023-09-08T14:36:10.349Z,29.34
2023-09-08T14:38:36.849Z,29.32
2023-09-08T14:41:03.774Z,29.31
2023-09-08T14:43:30.658Z,29.31
2023-09-08T14:45:57.355Z,29.33
2023-09-08T14:48:24.607Z,29.33
2023-09-08T14:50:51.794Z,29.29
2023-09-08T14:53:19.186Z,29.23
2023-09-08T14:55:45.918Z,29.14
2023-09-08T14:58:12.557Z,29.04
2023-09-08T15:00:40.108Z,28.98
2023-09-08T15:03:07.623Z,28.90
2023-09-08T15:05:35.128Z,28.79
2023-09-08T15:08:02.719Z,28.68
2023-09-08T15:10:29.327Z,28.57
2023-09-08T15:12:56.039Z,28.48
2023-09-08T15:15:22.577Z,28.38
2023-09-08T15:17:49.159Z,28.29
2023-09-08T15:20:15.755Z,28.22
2023-09-08T15:22:42.349Z,28.16
2023-09-08T15:25:09.352Z,28.09
2023-09-08T15:27:36.255Z,28.02
2023-09-08T15:30:02.872Z,27.95
2023-09-08T15:32:29.409Z,27.86
2023-09-08T15:34:55.926Z,27.78
2023-09-08T15:37:22.552Z,27.72
2023-09-08T15:39:49.052Z,27.65
2023-09-08T15:42:15.676Z,27.59
2023-09-08T15:44:42.264Z,27.58
2023-09-08T15:47:08.764Z,27.57
2023-09-08T15:49:35.573Z,27.55
2023-09-08T15:52:15.718Z,27.53
2023-09-08T15:54:43.183Z,27.58
2023-09-08T15:57:09.831Z,27.72
2023-09-08T15:59:36.333Z,27.74
2023-09-08T16:02:03.051Z,27.69
2023-09-08T16:04:29.741Z,27.61
2023-09-08T16:06:56.524Z,27.52
2023-09-08T16:09:23.068Z,27.44
2023-09-08T16:11:49.523Z,27.33
2023-09-08T16:14:16.007Z,27.22
2023-09-08T16:16:42.592Z,27.12
2023-09-08T16:19:13.270Z,27.02
2023-09-08T16:21:39.884Z,26.93
2023-09-08T16:24:09.116Z,26.86
2023-09-08T16:26:35.698Z,26.81
2023-09-08T16:29:02.228Z,26.74
2023-09-08T16:31:28.816Z,26.68
2023-09-08T16:33:56.664Z,26.61
2023-09-08T16:36:23.191Z,26.55
2023-09-08T16:38:49.691Z,26.48
2023-09-08T16:41:18.594Z,26.41
2023-09-08T16:43:45.102Z,26.34
2023-09-08T16:46:11.672Z,26.24
2023-09-08T16:48:38.235Z,26.15
2023-09-08T16:51:04.697Z,26.08
2023-09-08T16:53:31.187Z,25.97
2023-09-08T16:55:57.724Z,25.88
2023-09-08T16:58:25.009Z,25.78
2023-09-08T17:00:51.552Z,25.66
2023-09-08T17:03:18.338Z,25.54
2023-09-08T17:05:45.026Z,25.43
2023-09-08T17:08:13.130Z,25.30
2023-09-08T17:10:39.725Z,25.19
2023-09-08T17:13:06.245Z,25.08
2023-09-08T17:15:32.800Z,24.97
2023-09-08T17:17:59.359Z,24.86
2023-09-08T17:20:25.932Z,24.78
2023-09-08T17:22:52.533Z,24.69
2023-09-08T17:25:19.092Z,24.58
2023-09-08T17:27:45.622Z,24.45
2023-09-08T17:30:12.546Z,24.33
2023-09-08T17:32:39.259Z,24.22
2023-09-08T17:35:07.117Z,24.13
2023-09-08T17:37:33.659Z,24.05
2023-09-08T17:40:02.765Z,23.96
2023-09-08T17:42:29.262Z,23.88
2023-09-08T17:44:55.756Z,23.82
2023-09-08T17:47:22.278Z,23.76
2023-09-08T17:49:48.794Z,23.67
2023-09-08T17:52:15.323Z,23.58
2023-09-08T17:54:41.815Z,23.50
2023-09-08T17:57:11.163Z,23.42
2023-09-08T17:59:37.776Z,23.33
2023-09-08T18:02:04.761Z,23.24
2023-09-08T18:04:36.004Z,23.15
2023-09-08T18:07:02.612Z,23.10
2023-09-08T18:09:29.764Z,23.02
2023-09-08T18:11:56.338Z,22.94
2023-09-08T18:14:22.823Z,22.84
2023-09-08T18:16:49.319Z,22.76
2023-09-08T18:19:15.983Z,22.65
2023-09-08T18:21:42.582Z,22.56
2023-09-08T18:24:09.215Z,22.48
2023-09-08T18:26:35.798Z,22.41
2023-09-08T18:29:02.272Z,22.34
2023-09-08T18:31:28.841Z,22.27
2023-09-08T18:33:55.421Z,22.20
2023-09-08T18:36:21.948Z,22.12
2023-09-08T18:38:48.435Z,22.05
2023-09-08T18:41:14.941Z,21.98
2023-09-08T18:43:41.510Z,21.92
2023-09-08T18:46:08.096Z,21.86
2023-09-08T18:48:34.660Z,21.79
2023-09-08T18:51:01.388Z,21.73
2023-09-08T18:53:27.957Z,21.69
2023-09-08T18:55:54.720Z,21.64
2023-09-08T18:58:21.572Z,21.59
2023-09-08T19:00:48.061Z,21.53
2023-09-08T19:03:17.545Z,21.47
2023-09-08T19:05:44.204Z,21.41
2023-09-08T19:08:11.889Z,21.37
2023-09-08T19:10:38.370Z,21.34
2023-09-08T19:13:06.103Z,21.32
2023-09-08T19:15:32.903Z,21.29
2023-09-08T19:17:59.646Z,21.27
2023-09-08T19:20:26.299Z,21.25
2023-09-08T19:22:52.829Z,21.19
2023-09-08T19:25:19.402Z,21.12
2023-09-08T19:27:45.953Z,21.08
2023-09-08T19:30:15.040Z,21.04
2023-09-08T19:32:41.581Z,20.99
2023-09-08T19:35:09.153Z,20.93
2023-09-08T19:37:35.809Z,20.87
2023-09-08T19:40:02.370Z,20.83
2023-09-08T19:42:28.865Z,20.80
2023-09-08T19:44:55.370Z,20.77
2023-09-08T19:47:22.207Z,20.75
2023-09-08T19:49:48.759Z,20.74
2023-09-08T19:52:15.687Z,20.72
2023-09-08T19:54:42.318Z,20.71
2023-09-08T19:57:08.840Z,20.70
2023-09-08T19:59:35.835Z,20.67
2023-09-08T20:02:05.195Z,20.65
2023-09-08T20:04:31.850Z,20.63
2023-09-08T20:06:58.398Z,20.61
2023-09-08T20:09:25.044Z,20.58
2023-09-08T20:11:51.543Z,20.56
2023-09-08T20:14:18.291Z,20.54
2023-09-08T20:16:44.832Z,20.52
2023-09-08T20:19:11.449Z,20.51
2023-09-08T20:21:37.931Z,20.50
2023-09-08T20:24:04.732Z,20.50
2023-09-08T20:26:31.414Z,20.49
2023-09-08T20:28:58.096Z,20.49
2023-09-08T20:31:24.709Z,20.48
2023-09-08T20:33:51.293Z,20.47
2023-09-08T20:36:18.002Z,20.45
2023-09-08T20:38:44.679Z,20.44
2023-09-08T20:41:12.195Z,20.43
2023-09-08T20:43:39.539Z,20.40
2023-09-08T20:46:06.421Z,20.37
2023-09-08T20:48:34.997Z,20.35
2023-09-08T20:51:11.185Z,20.33
2023-09-08T20:53:40.356Z,20.31
2023-09-08T20:56:08.449Z,20.28
2023-09-08T20:58:34.972Z,20.27
2023-09-08T21:01:01.564Z,20.25
2023-09-08T21:03:28.776Z,20.20
2023-09-08T21:05:55.296Z,20.15
2023-09-08T21:08:22.011Z,20.11
2023-09-08T21:10:49.082Z,20.04
2023-09-08T21:13:16.051Z,19.98
2023-09-08T21:15:43.342Z,19.92
2023-09-08T21:18:10.007Z,19.85
2023-09-08T21:20:36.841Z,19.78
2023-09-08T21:23:03.734Z,19.71
2023-09-08T21:25:32.135Z,19.63
2023-09-08T21:27:59.597Z,19.57
2023-09-08T21:30:26.432Z,19.51
2023-09-08T21:32:56.112Z,19.46
2023-09-08T21:35:22.689Z,19.41
2023-09-08T21:37:49.317Z,19.36
2023-09-08T21:40:15.860Z,19.31
2023-09-08T21:42:42.659Z,19.28
2023-09-08T21:45:09.522Z,19.24
2023-09-08T21:47:36.104Z,19.19
2023-09-08T21:50:02.773Z,19.13
2023-09-08T21:52:38.454Z,19.10
2023-09-08T21:55:06.742Z,19.05
2023-09-08T21:57:33.296Z,19.01
2023-09-08T22:00:01.253Z,18.96
2023-09-08T22:02:29.072Z,18.92
2023-09-08T22:04:55.987Z,18.87
2023-09-08T22:07:22.808Z,18.83
2023-09-08T22:09:51.871Z,18.80
2023-09-08T22:12:18.408Z,18.78
2023-09-08T22:14:44.935Z,18.73
2023-09-08T22:17:11.441Z,18.69
2023-09-08T22:19:37.963Z,18.65
2023-09-08T22:22:04.643Z,18.62
2023-09-08T22:24:31.157Z,18.60
2023-09-08T22:26:57.740Z,18.57
2023-09-08T22:29:24.321Z,18.54
2023-09-08T22:31:51.020Z,18.54
2023-09-08T22:34:17.573Z,18.54
2023-09-08T22:36:44.126Z,18.55
2023-09-08T22:39:10.629Z,18.57
2023-09-08T22:41:37.139Z,18.55
2023-09-08T22:44:03.741Z,18.52
2023-09-08T22:46:30.444Z,18.52
2023-09-08T22:48:56.941Z,18.50
2023-09-08T22:51:23.444Z,18.47
2023-09-08T22:53:49.915Z,18.47
2023-09-08T22:56:16.540Z,18.46
2023-09-08T22:58:43.130Z,18.43
2023-09-08T23:01:09.822Z,18.38
2023-09-08T23:03:36.877Z,18.34
2023-09-08T23:06:03.949Z,18.29
2023-09-08T23:08:30.437Z,18.23
2023-09-08T23:10:57.179Z,18.18
2023-09-08T23:13:23.774Z,18.15
2023-09-08T23:15:50.247Z,18.10
2023-09-08T23:18:16.877Z,18.07
2023-09-08T23:20:43.451Z,18.05
2023-09-08T23:23:09.979Z,18.05
2023-09-08T23:25:36.529Z,18.04
2023-09-08T23:28:03.255Z,18.04
2023-09-08T23:30:29.752Z,18.05
2023-09-08T23:32:56.348Z,18.04
2023-09-08T23:35:22.915Z,18.03
2023-09-08T23:37:49.490Z,18.02
2023-09-08T23:40:16.047Z,18.00
2023-09-08T23:42:43.183Z,17.97
2023-09-08T23:45:10.108Z,17.95
2023-09-08T23:47:38.496Z,17.93
2023-09-08T23:50:05.625Z,17.90
2023-09-08T23:52:32.104Z,17.87
2023-09-08T23:54:58.598Z,17.83
2023-09-08T23:57:25.181Z,17.79
2023-09-08T23:59:51.768Z,17.77
